createdAt,value
2023-02-22T00:02:25.290Z,91.60
2023-02-22T00:04:54.001Z,91.60
2023-02-22T00:07:23.730Z,91.60
2023-02-22T00:09:53.372Z,91.60
2023-02-22T00:12:21.666Z,91.60
2023-02-22T00:14:51.230Z,91.60
2023-02-22T00:17:20.497Z,91.50
2023-02-22T00:19:50.210Z,91.50
2023-02-22T00:22:19.051Z,91.50
2023-02-22T00:24:48.361Z,91.50
2023-02-22T00:27:18.047Z,91.60
2023-02-22T00:29:47.230Z,91.70
2023-02-22T00:32:15.490Z,91.70
2023-02-22T00:34:44.620Z,91.60
2023-02-22T00:37:12.975Z,91.60
2023-02-22T00:39:41.530Z,91.60
2023-02-22T00:42:09.896Z,91.50
2023-02-22T00:44:39.516Z,91.50
2023-02-22T00:47:08.646Z,91.30
2023-02-22T00:49:37.015Z,91.20
2023-02-22T00:52:05.932Z,91.50
2023-02-22T00:54:34.186Z,91.00
2023-02-22T00:57:02.521Z,91.00
2023-02-22T00:59:31.165Z,90.90
2023-02-22T01:02:00.778Z,90.80
2023-02-22T01:04:29.297Z,90.80
2023-02-22T01:06:58.684Z,90.70
2023-02-22T01:09:28.947Z,90.50
2023-02-22T01:11:57.708Z,90.50
2023-02-22T01:14:27.880Z,90.50
2023-02-22T01:16:56.754Z,90.90
2023-02-22T01:19:27.083Z,90.50
2023-02-22T01:21:55.500Z,90.50
2023-02-22T01:24:23.697Z,90.50
2023-02-22T01:26:53.750Z,90.50
2023-02-22T01:29:22.460Z,90.50
2023-02-22T01:31:56.034Z,90.80
2023-02-22T01:34:26.745Z,90.40
2023-02-22T01:36:55.394Z,90.40
2023-02-22T01:39:23.708Z,90.50
2023-02-22T01:41:53.638Z,90.50
2023-02-22T01:44:28.903Z,90.50
2023-02-22T01:46:57.686Z,90.60
2023-02-22T01:49:31.140Z,90.50
2023-02-22T01:52:03.751Z,90.60
2023-02-22T01:54:36.110Z,90.60
2023-02-22T01:57:13.378Z,90.60
2023-02-22T01:59:47.694Z,90.50
2023-02-22T02:02:17.344Z,90.50
2023-02-22T02:04:47.451Z,90.50
2023-02-22T02:07:18.171Z,90.50
2023-02-22T02:09:58.042Z,90.40
2023-02-22T02:12:28.858Z,90.50
2023-02-22T02:15:19.297Z,90.50
2023-02-22T02:17:48.270Z,90.50
2023-02-22T02:20:28.165Z,90.40
2023-02-22T02:23:06.273Z,90.40
2023-02-22T02:26:18.107Z,90.30
2023-02-22T02:29:20.170Z,90.30
2023-02-22T02:32:05.607Z,90.30
2023-02-22T02:34:36.805Z,90.20
2023-02-22T02:37:12.840Z,90.20
2023-02-22T02:39:48.144Z,90.00
2023-02-22T02:42:22.837Z,90.00
2023-02-22T02:44:56.757Z,89.90
2023-02-22T02:47:31.097Z,89.70
2023-02-22T02:50:06.719Z,89.60
2023-02-22T02:52:36.494Z,89.30
2023-02-22T02:55:07.778Z,89.20
2023-02-22T02:57:36.010Z,89.10
2023-02-22T03:00:22.264Z,88.80
2023-02-22T03:03:06.340Z,88.80
2023-02-22T03:06:01.875Z,88.70
2023-02-22T03:08:38.210Z,88.70
2023-02-22T03:11:15.398Z,88.60
2023-02-22T03:13:55.695Z,88.70
2023-02-22T03:16:33.779Z,88.50
2023-02-22T03:19:10.201Z,88.50
2023-02-22T03:21:46.958Z,88.40
2023-02-22T03:24:21.162Z,88.40
2023-02-22T03:26:54.857Z,88.50
2023-02-22T03:29:26.274Z,88.60
2023-02-22T03:32:01.243Z,88.50
2023-02-22T03:34:37.681Z,88.20
2023-02-22T03:37:14.001Z,88.10
2023-02-22T03:39:45.749Z,88.10
2023-02-22T03:42:18.697Z,87.90
2023-02-22T03:44:48.711Z,87.90
2023-02-22T03:47:22.505Z,87.90
2023-02-22T03:49:58.699Z,87.80
2023-02-22T03:52:27.112Z,88.00
2023-02-22T03:54:55.492Z,87.90
2023-02-22T03:57:28.901Z,88.00
2023-02-22T04:00:08.113Z,88.20
2023-02-22T04:02:42.869Z,88.60
2023-02-22T04:05:18.202Z,88.80
2023-02-22T04:07:47.007Z,88.80
2023-02-22T04:10:17.498Z,88.80
2023-02-22T04:12:46.239Z,88.80
2023-02-22T04:15:17.733Z,88.80
2023-02-22T04:17:46.538Z,88.80
2023-02-22T04:20:20.005Z,88.60
2023-02-22T04:22:57.693Z,88.50
2023-02-22T04:25:48.206Z,88.50
2023-02-22T04:28:18.619Z,88.50
2023-02-22T04:31:00.077Z,88.50
2023-02-22T04:33:29.932Z,88.40
2023-02-22T04:35:59.599Z,88.40
2023-02-22T04:38:28.167Z,88.40
2023-02-22T04:40:59.094Z,88.50
2023-02-22T04:43:28.513Z,88.70
2023-02-22T04:46:05.544Z,89.00
2023-02-22T04:48:33.930Z,89.20
2023-02-22T04:51:03.624Z,89.30
2023-02-22T04:53:32.880Z,89.30
2023-02-22T04:56:01.922Z,89.60
2023-02-22T04:58:31.729Z,89.70
2023-02-22T05:01:00.738Z,89.60
2023-02-22T05:03:29.174Z,89.70
2023-02-22T05:05:57.504Z,89.80
2023-02-22T05:08:27.075Z,89.70
2023-02-22T05:10:55.389Z,89.70
2023-02-22T05:13:23.586Z,89.80
2023-02-22T05:15:51.837Z,89.80
2023-02-22T05:18:20.021Z,89.80
2023-02-22T05:20:48.212Z,89.60
2023-02-22T05:23:16.539Z,89.30
2023-02-22T05:25:46.304Z,90.00
2023-02-22T05:28:16.756Z,89.30
2023-02-22T05:30:45.342Z,89.20
2023-02-22T05:33:14.095Z,89.20
2023-02-22T05:35:42.326Z,89.30
2023-02-22T05:38:15.158Z,89.20
2023-02-22T05:40:45.412Z,89.30
2023-02-22T05:43:13.615Z,89.50
2023-02-22T05:45:41.958Z,89.70
2023-02-22T05:48:10.553Z,89.70
2023-02-22T05:50:38.768Z,89.70
2023-02-22T05:53:07.314Z,89.70
2023-02-22T05:55:35.508Z,89.80
2023-02-22T05:58:06.064Z,89.80
2023-02-22T06:00:34.789Z,89.70
2023-02-22T06:03:05.422Z,89.50
2023-02-22T06:05:34.246Z,89.40
2023-02-22T06:08:03.586Z,89.40
2023-02-22T06:10:31.841Z,89.40
2023-02-22T06:13:01.280Z,89.40
2023-02-22T06:15:30.895Z,89.20
2023-02-22T06:18:00.187Z,89.30
2023-02-22T06:20:33.455Z,89.40
2023-02-22T06:23:01.713Z,89.20
2023-02-22T06:25:32.501Z,89.20
2023-02-22T06:28:01.914Z,89.10
2023-02-22T06:30:32.158Z,89.00
2023-02-22T06:33:00.452Z,88.90
2023-02-22T06:35:28.793Z,88.80
2023-02-22T06:37:57.006Z,88.50
2023-02-22T06:40:29.456Z,88.50
2023-02-22T06:42:57.965Z,88.40
2023-02-22T06:45:26.301Z,88.20
2023-02-22T06:47:56.691Z,88.00
2023-02-22T06:50:26.774Z,87.90
2023-02-22T06:52:55.395Z,87.90
2023-02-22T06:55:25.367Z,87.90
2023-02-22T06:57:54.167Z,88.10
2023-02-22T07:00:24.767Z,88.10
2023-02-22T07:02:53.769Z,88.10
2023-02-22T07:05:24.355Z,88.10
2023-02-22T07:07:54.938Z,88.10
2023-02-22T07:10:25.280Z,87.90
2023-02-22T07:12:53.704Z,87.80
2023-02-22T07:15:23.608Z,87.80
2023-02-22T07:17:52.372Z,87.80
2023-02-22T07:20:21.592Z,87.70
2023-02-22T07:22:52.030Z,87.80
2023-02-22T07:25:21.036Z,87.70
2023-02-22T07:27:49.485Z,87.50
2023-02-22T07:30:19.614Z,87.50
2023-02-22T07:32:48.371Z,87.30
2023-02-22T07:35:18.491Z,87.20
2023-02-22T07:37:47.998Z,87.20
2023-02-22T07:40:19.512Z,87.10
2023-02-22T07:42:55.371Z,87.00
2023-02-22T07:45:25.063Z,87.00
2023-02-22T07:47:53.306Z,87.00
2023-02-22T07:50:22.889Z,87.10
2023-02-22T07:52:53.926Z,86.90
2023-02-22T07:55:25.291Z,87.80
2023-02-22T07:57:55.322Z,87.20
2023-02-22T08:00:26.992Z,87.00
2023-02-22T08:02:55.567Z,86.80
2023-02-22T08:05:26.129Z,86.80
2023-02-22T08:07:54.348Z,86.90
2023-02-22T08:10:25.668Z,87.50
2023-02-22T08:12:55.006Z,87.20
2023-02-22T08:15:25.393Z,86.80
2023-02-22T08:17:54.579Z,86.60
2023-02-22T08:20:24.088Z,86.60
2023-02-22T08:22:52.761Z,86.50
2023-02-22T08:25:25.312Z,86.80
2023-02-22T08:27:58.714Z,86.80
2023-02-22T08:30:27.399Z,86.30
2023-02-22T08:32:55.686Z,86.30
2023-02-22T08:35:24.718Z,86.70
2023-02-22T08:37:55.226Z,87.60
2023-02-22T08:40:27.695Z,87.00
2023-02-22T08:42:55.992Z,87.00
2023-02-22T08:45:24.387Z,87.60
2023-02-22T08:47:52.796Z,88.00
2023-02-22T08:50:22.616Z,88.20
2023-02-22T08:52:51.768Z,89.20
2023-02-22T08:55:22.462Z,89.90
2023-02-22T08:57:52.221Z,90.50
2023-02-22T09:00:24.683Z,90.50
2023-02-22T09:02:53.475Z,90.80
2023-02-22T09:05:22.243Z,90.80
2023-02-22T09:07:50.476Z,91.20
2023-02-22T09:10:21.157Z,91.30
2023-02-22T09:12:49.469Z,90.90
2023-02-22T09:15:20.030Z,90.80
2023-02-22T09:17:48.236Z,90.90
2023-02-22T09:20:19.522Z,90.30
2023-02-22T09:22:49.056Z,90.20
2023-02-22T09:25:20.573Z,90.20
2023-02-22T09:27:49.985Z,90.60
2023-02-22T09:30:25.113Z,90.70
2023-02-22T09:32:55.030Z,90.80
2023-02-22T09:35:28.554Z,91.00
2023-02-22T09:37:57.691Z,91.20
2023-02-22T09:40:30.027Z,91.30
2023-02-22T09:43:08.580Z,91.20
2023-02-22T09:45:48.205Z,91.50
2023-02-22T09:48:22.399Z,91.60
2023-02-22T09:50:54.139Z,91.30
2023-02-22T09:53:29.745Z,91.50
2023-02-22T09:56:03.524Z,91.30
2023-02-22T09:58:34.787Z,91.30
2023-02-22T10:01:19.895Z,91.10
2023-02-22T10:03:52.720Z,91.20
2023-02-22T10:06:23.713Z,91.20
2023-02-22T10:08:56.573Z,91.70
2023-02-22T10:11:43.179Z,91.30
2023-02-22T10:14:30.193Z,91.30
2023-02-22T10:17:06.523Z,91.50
2023-02-22T10:19:46.239Z,91.30
2023-02-22T10:22:37.870Z,91.30
2023-02-22T10:25:12.883Z,91.40
2023-02-22T10:27:44.005Z,91.80
2023-02-22T10:30:24.990Z,91.50
2023-02-22T10:32:59.854Z,91.50
2023-02-22T10:35:30.933Z,91.40
2023-02-22T10:38:05.372Z,91.50
2023-02-22T10:40:33.790Z,91.80
2023-02-22T10:43:06.534Z,91.50
2023-02-22T10:45:37.175Z,91.60
2023-02-22T10:48:11.629Z,91.60
2023-02-22T10:50:42.291Z,91.70
2023-02-22T10:53:11.816Z,91.70
2023-02-22T10:56:07.622Z,91.70
2023-02-22T10:58:47.837Z,91.80
2023-02-22T11:01:26.546Z,91.80
2023-02-22T11:04:05.303Z,91.80
2023-02-22T11:06:35.201Z,91.80
2023-02-22T11:09:10.831Z,91.80
2023-02-22T11:11:41.182Z,91.80
2023-02-22T11:14:11.737Z,91.90
2023-02-22T11:16:42.922Z,91.90
2023-02-22T11:19:21.007Z,91.90
2023-02-22T11:21:52.985Z,91.90
2023-02-22T11:24:25.072Z,92.00
2023-02-22T11:26:54.677Z,92.00
2023-02-22T11:29:28.144Z,92.10
2023-02-22T11:31:57.292Z,92.00
2023-02-22T11:34:31.565Z,92.10
2023-02-22T11:37:17.752Z,92.10
2023-02-22T11:39:46.466Z,92.10
2023-02-22T11:42:24.465Z,92.10
2023-02-22T11:45:11.197Z,92.20
2023-02-22T11:47:53.659Z,92.30
2023-02-22T11:50:31.976Z,92.20
2023-02-22T11:53:13.785Z,92.40
2023-02-22T11:55:46.797Z,92.30
2023-02-22T11:58:34.048Z,92.50
2023-02-22T12:01:10.051Z,92.50
2023-02-22T12:04:00.758Z,92.60
2023-02-22T12:06:40.480Z,92.30
2023-02-22T12:09:14.918Z,92.40
2023-02-22T12:11:58.384Z,92.50
2023-02-22T12:14:35.518Z,92.50
2023-02-22T12:17:15.022Z,92.50
2023-02-22T12:19:46.308Z,92.80
2023-02-22T12:22:21.709Z,92.60
2023-02-22T12:25:03.882Z,92.60
2023-02-22T12:27:42.341Z,92.70
2023-02-22T12:30:16.417Z,92.60
2023-02-22T12:32:48.861Z,92.70
2023-02-22T12:35:22.824Z,92.80
2023-02-22T12:38:01.851Z,92.70
2023-02-22T12:40:36.761Z,92.80
2023-02-22T12:43:12.018Z,92.80
2023-02-22T12:45:46.254Z,92.80
2023-02-22T12:48:34.251Z,92.90
2023-02-22T12:51:12.696Z,93.10
2023-02-22T12:53:45.961Z,93.00
2023-02-22T12:56:21.755Z,92.90
2023-02-22T12:58:56.584Z,92.80
2023-02-22T13:01:30.109Z,92.60
2023-02-22T13:04:02.068Z,92.70
2023-02-22T13:06:52.796Z,92.90
2023-02-22T13:09:39.799Z,93.40
2023-02-22T13:12:13.355Z,93.00
2023-02-22T13:14:58.984Z,93.00
2023-02-22T13:17:38.695Z,93.10
2023-02-22T13:20:14.907Z,93.20
2023-02-22T13:22:49.228Z,93.40
2023-02-22T13:25:24.486Z,93.40
2023-02-22T13:27:56.343Z,93.40
2023-02-22T13:30:32.810Z,93.30
2023-02-22T13:33:16.677Z,93.30
2023-02-22T13:36:02.417Z,93.40
2023-02-22T13:39:02.380Z,93.40
2023-02-22T13:41:52.977Z,93.40
2023-02-22T13:44:57.293Z,93.40
2023-02-22T13:48:02.254Z,93.40
2023-02-22T13:50:44.478Z,93.40
2023-02-22T13:53:17.762Z,93.40
2023-02-22T13:55:53.126Z,93.50
2023-02-22T13:58:22.866Z,93.70
2023-02-22T14:00:53.014Z,93.60
2023-02-22T14:03:40.970Z,93.80
2023-02-22T14:06:11.629Z,93.80
2023-02-22T14:08:42.301Z,93.80
2023-02-22T14:11:56.739Z,93.80
2023-02-22T14:14:26.520Z,93.80
2023-02-22T14:17:27.368Z,93.80
2023-02-22T14:20:14.762Z,93.80
2023-02-22T14:22:46.904Z,93.80
2023-02-22T14:25:34.984Z,93.70
2023-02-22T14:28:04.658Z,93.80
2023-02-22T14:30:37.269Z,93.80
2023-02-22T14:33:55.827Z,93.70
2023-02-22T14:36:27.555Z,93.90
2023-02-22T14:38:59.199Z,94.00
2023-02-22T14:41:29.325Z,94.00
2023-02-22T14:43:58.405Z,93.90
2023-02-22T14:46:30.346Z,94.10
2023-02-22T14:49:05.167Z,94.10
2023-02-22T14:51:41.987Z,94.10
2023-02-22T14:54:16.982Z,94.10
2023-02-22T14:56:52.739Z,94.00
2023-02-22T14:59:24.147Z,94.00
2023-02-22T15:02:11.456Z,93.50
2023-02-22T15:04:43.936Z,93.50
2023-02-22T15:07:27.275Z,93.60
2023-02-22T15:10:20.670Z,93.70
2023-02-22T15:13:10.624Z,93.80
2023-02-22T15:15:43.817Z,93.60
2023-02-22T15:18:27.476Z,93.70
2023-02-22T15:20:58.847Z,93.70
2023-02-22T15:23:30.817Z,93.70
2023-02-22T15:25:59.193Z,93.80
2023-02-22T15:28:30.947Z,93.70
2023-02-22T15:31:25.177Z,93.60
2023-02-22T15:33:55.475Z,93.60
2023-02-22T15:36:28.364Z,93.50
2023-02-22T15:38:56.913Z,93.50
2023-02-22T15:41:29.021Z,93.50
2023-02-22T15:44:08.040Z,93.50
2023-02-22T15:46:42.963Z,93.80
2023-02-22T15:49:24.437Z,94.00
2023-02-22T15:52:07.917Z,94.00
2023-02-22T15:54:42.233Z,93.90
2023-02-22T15:57:10.842Z,93.90
2023-02-22T15:59:46.342Z,94.00
2023-02-22T16:02:41.686Z,94.10
2023-02-22T16:05:14.163Z,94.20
2023-02-22T16:07:46.172Z,94.10
2023-02-22T16:10:25.249Z,94.20
2023-02-22T16:13:11.153Z,94.20
2023-02-22T16:15:42.593Z,94.20
2023-02-22T16:18:36.459Z,94.20
2023-02-22T16:21:11.863Z,94.20
2023-02-22T16:23:48.692Z,94.40
2023-02-22T16:26:23.702Z,94.30
2023-02-22T16:28:53.873Z,94.30
2023-02-22T16:31:25.331Z,94.70
2023-02-22T16:33:54.081Z,94.30
2023-02-22T16:36:38.579Z,94.50
2023-02-22T16:39:08.253Z,94.50
2023-02-22T16:41:36.551Z,94.40
2023-02-22T16:44:07.693Z,94.50
2023-02-22T16:46:37.952Z,94.60
2023-02-22T16:49:06.740Z,94.60
2023-02-22T16:51:42.505Z,94.50
2023-02-22T16:54:13.639Z,94.40
2023-02-22T16:56:42.295Z,94.30
2023-02-22T16:59:14.064Z,94.60
2023-02-22T17:01:42.785Z,94.80
2023-02-22T17:04:17.695Z,95.10
2023-02-22T17:06:47.817Z,95.20
2023-02-22T17:09:16.607Z,95.40
2023-02-22T17:11:45.414Z,95.40
2023-02-22T17:14:20.545Z,95.70
2023-02-22T17:16:48.769Z,95.80
2023-02-22T17:19:19.173Z,95.70
2023-02-22T17:21:49.399Z,95.50
2023-02-22T17:24:22.391Z,95.80
2023-02-22T17:26:52.029Z,95.90
2023-02-22T17:29:20.665Z,96.00
2023-02-22T17:31:49.453Z,96.00
2023-02-22T17:34:17.906Z,95.40
2023-02-22T17:36:47.072Z,95.00
2023-02-22T17:39:16.763Z,94.70
2023-02-22T17:41:45.066Z,94.20
2023-02-22T17:44:13.623Z,94.10
2023-02-22T17:46:42.156Z,94.50
2023-02-22T17:49:10.433Z,94.20
2023-02-22T17:51:41.368Z,94.00
2023-02-22T17:54:10.540Z,93.80
2023-02-22T17:56:41.432Z,93.50
2023-02-22T17:59:09.813Z,93.20
2023-02-22T18:01:38.395Z,93.10
2023-02-22T18:04:07.822Z,92.50
2023-02-22T18:06:38.049Z,92.50
2023-02-22T18:09:10.835Z,92.10
2023-02-22T18:11:41.490Z,91.70
2023-02-22T18:14:10.905Z,91.40
2023-02-22T18:16:39.474Z,91.20
2023-02-22T18:19:08.250Z,91.00
2023-02-22T18:21:38.721Z,90.90
2023-02-22T18:24:07.806Z,90.90
2023-02-22T18:26:39.042Z,90.70
2023-02-22T18:29:12.366Z,90.70
2023-02-22T18:31:40.760Z,90.80
2023-02-22T18:34:09.906Z,90.90
2023-02-22T18:36:38.257Z,90.80
2023-02-22T18:39:11.609Z,90.70
2023-02-22T18:41:39.917Z,90.70
2023-02-22T18:44:11.049Z,90.50
2023-02-22T18:46:39.493Z,90.30
2023-02-22T18:49:07.858Z,90.60
2023-02-22T18:51:36.088Z,90.60
2023-02-22T18:54:04.304Z,90.40
2023-02-22T18:56:34.044Z,90.70
2023-02-22T18:59:04.141Z,90.80
2023-02-22T19:01:38.661Z,90.70
2023-02-22T19:04:09.652Z,90.80
2023-02-22T19:06:38.235Z,90.90
2023-02-22T19:09:08.612Z,90.80
2023-02-22T19:11:40.195Z,90.80
2023-02-22T19:14:09.576Z,90.60
2023-02-22T19:16:39.235Z,90.70
2023-02-22T19:19:07.508Z,90.80
2023-02-22T19:21:36.535Z,90.60
2023-02-22T19:24:05.177Z,90.70
2023-02-22T19:26:33.447Z,90.70
2023-02-22T19:29:06.289Z,90.70
2023-02-22T19:31:35.435Z,90.90
2023-02-22T19:34:08.979Z,90.80
2023-02-22T19:36:39.374Z,90.80
2023-02-22T19:39:07.778Z,91.00
2023-02-22T19:41:36.175Z,91.10
2023-02-22T19:44:04.551Z,91.10
2023-02-22T19:46:33.457Z,91.20
2023-02-22T19:49:04.917Z,91.10
2023-02-22T19:51:33.809Z,91.20
2023-02-22T19:54:03.819Z,91.20
2023-02-22T19:56:34.873Z,91.40
2023-02-22T19:59:09.396Z,91.50
2023-02-22T20:01:38.352Z,91.50
2023-02-22T20:04:10.012Z,91.60
2023-02-22T20:06:41.041Z,91.60
2023-02-22T20:09:10.600Z,91.70
2023-02-22T20:11:39.063Z,91.70
2023-02-22T20:14:07.643Z,91.80
2023-02-22T20:16:36.377Z,91.90
2023-02-22T20:19:04.953Z,92.00
2023-02-22T20:21:36.379Z,92.00
2023-02-22T20:24:08.511Z,92.10
2023-02-22T20:26:39.010Z,92.10
2023-02-22T20:29:09.254Z,92.30
2023-02-22T20:31:38.237Z,92.40
2023-02-22T20:34:07.114Z,92.40
2023-02-22T20:36:39.107Z,92.50
2023-02-22T20:39:13.181Z,92.50
2023-02-22T20:41:43.340Z,92.50
2023-02-22T20:44:13.829Z,92.60
2023-02-22T20:46:42.794Z,92.60
2023-02-22T20:49:14.880Z,92.70
2023-02-22T20:51:45.750Z,92.70
2023-02-22T20:54:14.830Z,92.80
2023-02-22T20:56:45.228Z,92.80
2023-02-22T20:59:35.159Z,92.80
2023-02-22T21:02:03.398Z,93.00
2023-02-22T21:04:33.663Z,92.90
2023-02-22T21:07:03.588Z,92.90
2023-02-22T21:09:33.330Z,93.00
2023-02-22T21:12:01.461Z,92.90
2023-02-22T21:14:32.562Z,92.90
2023-02-22T21:17:03.791Z,93.00
2023-02-22T21:19:33.330Z,93.10
2023-02-22T21:22:08.104Z,93.00
2023-02-22T21:24:37.354Z,93.10
2023-02-22T21:27:06.953Z,93.00
2023-02-22T21:29:35.943Z,93.10
2023-02-22T21:32:04.406Z,93.20
2023-02-22T21:34:32.711Z,93.20
2023-02-22T21:37:02.329Z,93.20
2023-02-22T21:39:30.543Z,93.20
2023-02-22T21:42:01.822Z,93.20
2023-02-22T21:44:30.263Z,93.10
2023-02-22T21:46:58.564Z,93.00
2023-02-22T21:49:27.199Z,93.00
2023-02-22T21:51:56.492Z,92.80
2023-02-22T21:54:27.952Z,92.70
2023-02-22T21:56:56.354Z,92.80
2023-02-22T21:59:24.510Z,92.80
2023-02-22T22:01:55.953Z,92.80
2023-02-22T22:04:27.829Z,92.50
2023-02-22T22:06:58.262Z,92.30
2023-02-22T22:09:32.875Z,92.50
2023-02-22T22:12:05.050Z,92.60
2023-02-22T22:14:35.119Z,92.80
2023-02-22T22:17:05.551Z,92.80
2023-02-22T22:19:39.280Z,92.80
2023-02-22T22:22:07.923Z,92.70
2023-02-22T22:24:40.277Z,92.70
2023-02-22T22:27:12.223Z,92.70
2023-02-22T22:29:40.427Z,92.70
2023-02-22T22:32:09.034Z,92.70
2023-02-22T22:34:37.896Z,92.70
2023-02-22T22:37:06.309Z,92.70
2023-02-22T22:39:34.504Z,92.80
2023-02-22T22:42:04.173Z,92.80
2023-02-22T22:44:41.856Z,92.90
2023-02-22T22:47:12.197Z,93.00
2023-02-22T22:49:42.587Z,93.00
2023-02-22T22:52:13.824Z,93.00
2023-02-22T22:54:43.162Z,93.00
2023-02-22T22:57:12.801Z,93.10
2023-02-22T22:59:40.953Z,93.10
2023-02-22T23:02:11.369Z,93.20
2023-02-22T23:04:39.614Z,93.30
2023-02-22T23:07:07.865Z,93.30
2023-02-22T23:09:38.738Z,93.40
2023-02-22T23:12:09.683Z,93.40
2023-02-22T23:14:44.072Z,93.40
2023-02-22T23:17:15.187Z,93.50
2023-02-22T23:19:44.854Z,93.50
2023-02-22T23:22:14.190Z,93.60
2023-02-22T23:24:44.541Z,93.60
2023-02-22T23:27:13.077Z,93.60
2023-02-22T23:29:46.539Z,93.70
2023-02-22T23:32:15.217Z,93.80
2023-02-22T23:34:43.967Z,93.80
2023-02-22T23:37:14.083Z,93.80
2023-02-22T23:39:42.514Z,93.80
2023-02-22T23:42:10.785Z,93.90
2023-02-22T23:44:40.237Z,93.90
2023-02-22T23:47:10.054Z,94.00
2023-02-22T23:49:38.792Z,94.00
2023-02-22T23:52:08.203Z,94.00
2023-02-22T23:54:43.861Z,94.00
2023-02-22T23:57:12.410Z,94.10
2023-02-22T23:59:40.827Z,94.10
